createdAt,value
2024-02-20T00:00:39.970Z,4.99
2024-02-20T00:03:28.112Z,4.97
2024-02-20T00:05:56.397Z,4.95
2024-02-20T00:08:24.611Z,4.96
2024-02-20T00:10:52.856Z,4.97
2024-02-20T00:13:22.456Z,4.99
2024-02-20T00:15:51.040Z,5.00
2024-02-20T00:18:19.621Z,5.00
2024-02-20T00:20:48.105Z,5.02
2024-02-20T00:23:16.254Z,5.03
2024-02-20T00:25:47.224Z,5.02
2024-02-20T00:28:16.401Z,5.01
2024-02-20T00:30:45.688Z,5.00
2024-02-20T00:33:14.273Z,5.00
2024-02-20T00:35:42.499Z,5.01
2024-02-20T00:38:10.733Z,5.01
2024-02-20T00:40:40.867Z,4.99
2024-02-20T00:43:09.707Z,5.00
2024-02-20T00:45:38.405Z,4.98
2024-02-20T00:48:07.502Z,4.98
2024-02-20T00:50:35.688Z,4.98
2024-02-20T00:53:04.401Z,4.99
2024-02-20T00:55:32.608Z,4.99
2024-02-20T00:58:01.299Z,4.99
2024-02-20T01:00:29.768Z,4.99
2024-02-20T01:03:00.065Z,5.01
2024-02-20T01:05:28.560Z,5.02
2024-02-20T01:07:58.403Z,5.04
2024-02-20T01:10:26.967Z,5.04
2024-02-20T01:12:55.659Z,5.03
2024-02-20T01:15:24.219Z,5.00
2024-02-20T01:17:54.341Z,4.97
2024-02-20T01:20:22.710Z,4.93
2024-02-20T01:22:51.757Z,4.89
2024-02-20T01:25:19.937Z,4.86
2024-02-20T01:27:48.172Z,4.83
2024-02-20T01:30:17.726Z,4.82
2024-02-20T01:32:45.967Z,4.80
2024-02-20T01:35:15.042Z,4.79
2024-02-20T01:37:43.456Z,4.77
2024-02-20T01:40:12.506Z,4.76
2024-02-20T01:42:40.675Z,4.76
2024-02-20T01:45:10.011Z,4.74
2024-02-20T01:47:38.445Z,4.72
2024-02-20T01:50:08.333Z,4.73
2024-02-20T01:52:36.802Z,4.73
2024-02-20T01:55:05.859Z,4.73
2024-02-20T01:57:35.236Z,4.72
2024-02-20T02:00:06.133Z,4.72
2024-02-20T02:02:40.138Z,4.71
2024-02-20T02:05:08.946Z,4.70
2024-02-20T02:07:37.391Z,4.71
2024-02-20T02:10:06.500Z,4.71
2024-02-20T02:12:35.182Z,4.71
2024-02-20T02:15:03.774Z,4.71
2024-02-20T02:17:31.962Z,4.71
2024-02-20T02:20:00.343Z,4.71
2024-02-20T02:22:28.638Z,4.71
2024-02-20T02:24:56.983Z,4.71
2024-02-20T02:27:25.175Z,4.70
2024-02-20T02:29:53.635Z,4.70
2024-02-20T02:32:21.896Z,4.68
2024-02-20T02:34:50.585Z,4.65
2024-02-20T02:37:18.886Z,4.66
2024-02-20T02:39:47.438Z,4.65
2024-02-20T02:42:15.849Z,4.64
2024-02-20T02:44:45.267Z,4.61
2024-02-20T02:47:13.987Z,4.60
2024-02-20T02:49:42.233Z,4.61
2024-02-20T02:52:10.415Z,4.61
2024-02-20T02:54:38.584Z,4.60
2024-02-20T02:57:07.644Z,4.59
2024-02-20T02:59:36.006Z,4.58
2024-02-20T03:02:05.055Z,4.57
2024-02-20T03:04:33.823Z,4.57
2024-02-20T03:07:02.300Z,4.57
2024-02-20T03:09:30.533Z,4.56
2024-02-20T03:11:59.348Z,4.55
2024-02-20T03:14:27.636Z,4.54
2024-02-20T03:16:55.839Z,4.53
2024-02-20T03:19:24.283Z,4.51
2024-02-20T03:21:53.328Z,4.51
2024-02-20T03:24:21.865Z,4.52
2024-02-20T03:26:50.072Z,4.52
2024-02-20T03:29:18.313Z,4.52
2024-02-20T03:31:46.454Z,4.53
2024-02-20T03:34:14.845Z,4.55
2024-02-20T03:36:43.114Z,4.56
2024-02-20T03:39:11.918Z,4.59
2024-02-20T03:41:40.153Z,4.60
2024-02-20T03:44:08.431Z,4.59
2024-02-20T03:46:37.397Z,4.59
2024-02-20T03:49:05.850Z,4.57
2024-02-20T03:51:34.407Z,4.57
2024-02-20T03:54:02.602Z,4.59
2024-02-20T03:56:30.802Z,4.59
2024-02-20T03:58:58.958Z,4.61
2024-02-20T04:01:27.304Z,4.62
2024-02-20T04:03:55.638Z,4.62
2024-02-20T04:06:23.970Z,4.62
2024-02-20T04:08:52.743Z,4.61
2024-02-20T04:11:21.269Z,4.62
2024-02-20T04:13:49.404Z,4.62
2024-02-20T04:16:17.724Z,4.62
2024-02-20T04:18:46.162Z,4.63
2024-02-20T04:21:14.428Z,4.64
2024-02-20T04:23:42.619Z,4.64
2024-02-20T04:26:10.707Z,4.65
2024-02-20T04:28:38.956Z,4.66
2024-02-20T04:31:07.134Z,4.66
2024-02-20T04:33:35.418Z,4.65
2024-02-20T04:36:03.901Z,4.64
2024-02-20T04:38:32.074Z,4.64
2024-02-20T04:41:00.968Z,4.63
2024-02-20T04:43:29.218Z,4.60
2024-02-20T04:45:57.412Z,4.59
2024-02-20T04:48:25.649Z,4.59
2024-02-20T04:50:54.704Z,4.58
2024-02-20T04:53:22.994Z,4.56
2024-02-20T04:55:51.192Z,4.55
2024-02-20T04:58:19.464Z,4.54
2024-02-20T05:00:47.814Z,4.55
2024-02-20T05:03:16.228Z,4.54
2024-02-20T05:05:44.461Z,4.53
2024-02-20T05:08:12.620Z,4.54
2024-02-20T05:10:40.904Z,4.54
2024-02-20T05:13:09.117Z,4.55
2024-02-20T05:15:37.430Z,4.55
2024-02-20T05:18:06.654Z,4.57
2024-02-20T05:20:34.900Z,4.66
2024-02-20T05:23:03.391Z,4.77
2024-02-20T05:25:31.698Z,4.88
2024-02-20T05:27:59.972Z,4.98
2024-02-20T05:30:28.242Z,5.06
2024-02-20T05:32:56.431Z,5.13
2024-02-20T05:35:24.675Z,5.22
2024-02-20T05:37:52.911Z,5.30
2024-02-20T05:40:21.145Z,5.38
2024-02-20T05:42:49.352Z,5.47
2024-02-20T05:45:20.769Z,5.55
2024-02-20T05:47:49.121Z,5.63
2024-02-20T05:50:17.961Z,5.72
2024-02-20T05:52:47.372Z,5.80
2024-02-20T05:55:17.441Z,5.90
2024-02-20T05:57:45.640Z,5.97
2024-02-20T06:00:14.902Z,6.02
2024-02-20T06:02:43.245Z,6.06
2024-02-20T06:05:11.743Z,6.08
2024-02-20T06:07:40.144Z,6.08
2024-02-20T06:10:09.178Z,6.08
2024-02-20T06:12:37.386Z,6.09
2024-02-20T06:15:07.322Z,6.08
2024-02-20T06:17:35.939Z,6.05
2024-02-20T06:20:04.927Z,6.02
2024-02-20T06:22:33.984Z,6.01
2024-02-20T06:25:03.517Z,6.00
2024-02-20T06:27:31.784Z,5.99
2024-02-20T06:29:59.998Z,5.97
2024-02-20T06:32:29.549Z,6.00
2024-02-20T06:34:59.115Z,6.04
2024-02-20T06:37:27.396Z,6.06
2024-02-20T06:39:55.560Z,6.09
2024-02-20T06:42:23.868Z,6.13
2024-02-20T06:44:52.035Z,6.15
2024-02-20T06:47:20.233Z,6.17
2024-02-20T06:49:48.450Z,6.16
2024-02-20T06:52:16.690Z,6.18
2024-02-20T06:54:44.981Z,6.21
2024-02-20T06:57:13.200Z,6.21
2024-02-20T06:59:41.500Z,6.21
2024-02-20T07:02:09.807Z,6.17
2024-02-20T07:04:41.839Z,6.17
2024-02-20T07:07:10.284Z,6.18
2024-02-20T07:09:38.533Z,6.19
2024-02-20T07:12:07.760Z,6.20
2024-02-20T07:14:37.532Z,6.18
2024-02-20T07:17:05.929Z,6.19
2024-02-20T07:19:34.228Z,6.20
2024-02-20T07:22:02.480Z,6.21
2024-02-20T07:24:30.650Z,6.23
2024-02-20T07:26:58.843Z,6.23
2024-02-20T07:29:26.981Z,6.23
2024-02-20T07:31:56.550Z,6.24
2024-02-20T07:34:25.466Z,6.26
2024-02-20T07:36:55.446Z,6.26
2024-02-20T07:39:23.747Z,6.28
2024-02-20T07:41:52.783Z,6.30
2024-02-20T07:44:20.990Z,6.33
2024-02-20T07:46:49.604Z,6.35
2024-02-20T07:49:18.041Z,6.42
2024-02-20T07:51:46.350Z,6.46
2024-02-20T07:54:14.846Z,6.43
2024-02-20T07:56:43.763Z,6.40
2024-02-20T07:59:12.208Z,6.34
2024-02-20T08:01:40.721Z,6.27
2024-02-20T08:04:09.166Z,6.20
2024-02-20T08:06:37.528Z,6.13
2024-02-20T08:09:06.623Z,6.06
2024-02-20T08:11:35.517Z,6.01
2024-02-20T08:14:03.795Z,5.98
2024-02-20T08:16:32.915Z,5.96
2024-02-20T08:19:02.347Z,5.96
2024-02-20T08:21:30.633Z,5.98
2024-02-20T08:24:00.001Z,6.02
2024-02-20T08:26:28.637Z,6.08
2024-02-20T08:28:56.930Z,6.16
2024-02-20T08:31:25.212Z,6.22
2024-02-20T08:33:53.425Z,6.23
2024-02-20T08:36:22.143Z,6.25
2024-02-20T08:38:50.546Z,6.28
2024-02-20T08:41:18.704Z,6.29
2024-02-20T08:43:49.783Z,6.31
2024-02-20T08:46:19.077Z,6.33
2024-02-20T08:48:48.122Z,6.35
2024-02-20T08:51:17.074Z,6.37
2024-02-20T08:53:46.696Z,6.38
2024-02-20T08:56:15.098Z,6.40
2024-02-20T08:58:43.403Z,6.40
2024-02-20T09:01:11.649Z,6.44
2024-02-20T09:03:39.874Z,6.51
2024-02-20T09:06:08.262Z,6.59
2024-02-20T09:08:36.489Z,6.65
2024-02-20T09:11:05.715Z,6.72
2024-02-20T09:13:36.003Z,6.78
2024-02-20T09:16:04.890Z,6.82
2024-02-20T09:18:36.684Z,6.81
2024-02-20T09:21:08.147Z,6.82
2024-02-20T09:23:38.683Z,6.85
2024-02-20T09:26:07.723Z,6.92
2024-02-20T09:28:36.161Z,6.94
2024-02-20T09:31:04.654Z,6.95
2024-02-20T09:33:34.056Z,6.93
2024-02-20T09:36:02.521Z,6.92
2024-02-20T09:38:30.673Z,6.90
2024-02-20T09:41:01.182Z,6.90
2024-02-20T09:43:29.696Z,6.93
2024-02-20T09:46:05.427Z,6.98
2024-02-20T09:48:34.693Z,7.05
2024-02-20T09:51:03.451Z,7.10
2024-02-20T09:53:33.546Z,7.14
2024-02-20T09:56:01.881Z,7.21
2024-02-20T09:58:33.561Z,7.28
2024-02-20T10:01:06.285Z,7.35
2024-02-20T10:03:36.834Z,7.42
2024-02-20T10:06:09.406Z,7.49
2024-02-20T10:08:38.214Z,7.57
2024-02-20T10:11:07.511Z,7.63
2024-02-20T10:13:46.534Z,7.69
2024-02-20T10:16:17.334Z,7.73
2024-02-20T10:18:57.566Z,7.76
2024-02-20T10:21:30.256Z,7.84
2024-02-20T10:24:08.110Z,7.91
2024-02-20T10:26:38.422Z,7.94
2024-02-20T10:29:07.245Z,7.98
2024-02-20T10:31:35.635Z,8.02
2024-02-20T10:34:10.186Z,8.07
2024-02-20T10:36:42.887Z,8.13
2024-02-20T10:39:12.152Z,8.18
2024-02-20T10:41:40.910Z,8.22
2024-02-20T10:44:09.452Z,8.25
2024-02-20T10:46:41.387Z,8.26
2024-02-20T10:49:25.037Z,8.29
2024-02-20T10:51:56.034Z,8.38
2024-02-20T10:54:31.619Z,8.49
2024-02-20T10:57:06.981Z,8.55
2024-02-20T10:59:36.305Z,8.63
2024-02-20T11:02:04.901Z,8.69
2024-02-20T11:04:33.735Z,8.76
2024-02-20T11:07:02.840Z,8.82
2024-02-20T11:09:31.091Z,8.85
2024-02-20T11:12:10.148Z,8.88
2024-02-20T11:14:38.697Z,8.92
2024-02-20T11:17:24.674Z,8.94
2024-02-20T11:20:26.917Z,8.98
2024-02-20T11:22:55.219Z,9.02
2024-02-20T11:25:31.598Z,9.06
2024-02-20T11:27:59.963Z,9.08
2024-02-20T11:30:28.359Z,9.07
2024-02-20T11:32:57.717Z,9.09
2024-02-20T11:35:32.116Z,9.10
2024-02-20T11:38:02.328Z,9.07
2024-02-20T11:40:33.303Z,9.07
2024-02-20T11:43:07.474Z,9.06
2024-02-20T11:45:36.357Z,9.06
2024-02-20T11:48:13.501Z,9.08
2024-02-20T11:50:45.005Z,9.06
2024-02-20T11:53:16.614Z,9.07
2024-02-20T11:55:48.009Z,9.03
2024-02-20T11:58:26.534Z,8.99
2024-02-20T12:01:07.228Z,9.00
2024-02-20T12:03:38.195Z,9.02
2024-02-20T12:06:10.102Z,9.02
2024-02-20T12:08:43.228Z,9.01
2024-02-20T12:11:18.973Z,9.02
2024-02-20T12:13:51.916Z,9.02
2024-02-20T12:16:27.694Z,9.00
2024-02-20T12:19:03.614Z,9.00
2024-02-20T12:21:40.088Z,8.97
2024-02-20T12:24:12.154Z,8.93
2024-02-20T12:26:40.723Z,8.92
2024-02-20T12:29:08.879Z,8.88
2024-02-20T12:31:37.213Z,8.86
2024-02-20T12:34:06.902Z,8.88
2024-02-20T12:36:37.273Z,8.89
2024-02-20T12:39:05.767Z,8.91
2024-02-20T12:41:35.198Z,8.94
2024-02-20T12:44:04.737Z,8.98
2024-02-20T12:46:33.015Z,9.03
2024-02-20T12:49:01.488Z,9.06
2024-02-20T12:51:30.080Z,9.09
2024-02-20T12:53:58.274Z,9.12
2024-02-20T12:56:27.036Z,9.15
2024-02-20T12:58:55.303Z,9.18
2024-02-20T13:01:24.216Z,9.19
2024-02-20T13:03:52.575Z,9.20
2024-02-20T13:06:20.925Z,9.24
2024-02-20T13:08:49.177Z,9.27
2024-02-20T13:11:18.948Z,9.30
2024-02-20T13:13:48.511Z,9.32
2024-02-20T13:16:16.973Z,9.34
2024-02-20T13:18:45.810Z,9.36
2024-02-20T13:21:15.572Z,9.39
2024-02-20T13:23:44.284Z,9.40
2024-02-20T13:26:13.601Z,9.37
2024-02-20T13:28:42.401Z,9.34
2024-02-20T13:31:11.310Z,9.33
2024-02-20T13:33:39.704Z,9.31
2024-02-20T13:36:09.342Z,9.30
2024-02-20T13:38:41.381Z,9.30
2024-02-20T13:41:10.986Z,9.31
2024-02-20T13:43:42.407Z,9.29
2024-02-20T13:46:11.048Z,9.27
2024-02-20T13:48:39.398Z,9.26
2024-02-20T13:51:07.815Z,9.26
2024-02-20T13:53:36.101Z,9.26
2024-02-20T13:56:05.247Z,9.28
2024-02-20T13:58:34.082Z,9.32
2024-02-20T14:01:02.608Z,9.35
2024-02-20T14:03:31.839Z,9.39
2024-02-20T14:06:00.703Z,9.43
2024-02-20T14:08:29.094Z,9.45
2024-02-20T14:10:57.477Z,9.46
2024-02-20T14:13:26.496Z,9.44
2024-02-20T14:15:55.638Z,9.42
2024-02-20T14:18:24.329Z,9.41
2024-02-20T14:20:58.376Z,9.40
2024-02-20T14:23:26.759Z,9.39
2024-02-20T14:25:55.033Z,9.36
2024-02-20T14:28:23.452Z,9.34
2024-02-20T14:30:57.992Z,9.32
2024-02-20T14:33:31.184Z,9.29
2024-02-20T14:36:01.846Z,9.25
2024-02-20T14:38:30.222Z,9.21
2024-02-20T14:40:58.829Z,9.15
2024-02-20T14:43:27.394Z,9.09
2024-02-20T14:45:56.225Z,9.03
2024-02-20T14:48:24.916Z,8.97
2024-02-20T14:50:53.144Z,8.93
2024-02-20T14:53:21.291Z,8.88
2024-02-20T14:55:50.003Z,8.84
2024-02-20T14:58:18.758Z,8.80
2024-02-20T15:00:47.237Z,8.76
2024-02-20T15:03:17.459Z,8.73
2024-02-20T15:05:47.288Z,8.69
2024-02-20T15:08:18.376Z,8.65
2024-02-20T15:10:47.179Z,8.61
2024-02-20T15:13:16.102Z,8.57
2024-02-20T15:15:45.051Z,8.54
2024-02-20T15:18:13.253Z,8.51
2024-02-20T15:20:44.160Z,8.48
2024-02-20T15:23:13.583Z,8.44
2024-02-20T15:25:42.016Z,8.40
2024-02-20T15:28:11.687Z,8.37
2024-02-20T15:30:40.114Z,8.35
2024-02-20T15:33:08.446Z,8.32
2024-02-20T15:35:36.864Z,8.29
2024-02-20T15:38:05.574Z,8.26
2024-02-20T15:40:40.909Z,8.23
2024-02-20T15:43:12.041Z,8.21
2024-02-20T15:45:46.217Z,8.17
2024-02-20T15:48:16.592Z,8.14
2024-02-20T15:50:47.096Z,8.11
2024-02-20T15:53:16.974Z,8.06
2024-02-20T15:55:45.908Z,8.02
2024-02-20T15:58:16.315Z,7.98
2024-02-20T16:00:45.326Z,7.93
2024-02-20T16:03:13.982Z,7.88
2024-02-20T16:05:42.310Z,7.83
2024-02-20T16:08:15.955Z,7.78
2024-02-20T16:10:47.345Z,7.72
2024-02-20T16:13:16.394Z,7.65
2024-02-20T16:15:46.185Z,7.58
2024-02-20T16:18:14.509Z,7.51
2024-02-20T16:20:44.221Z,7.44
2024-02-20T16:23:13.365Z,7.36
2024-02-20T16:25:43.276Z,7.28
2024-02-20T16:28:11.986Z,7.22
2024-02-20T16:30:40.217Z,7.13
2024-02-20T16:33:08.757Z,7.05
2024-02-20T16:35:37.043Z,6.96
2024-02-20T16:38:05.522Z,6.89
2024-02-20T16:40:33.927Z,6.80
2024-02-20T16:43:02.339Z,6.72
2024-02-20T16:45:32.644Z,6.64
2024-02-20T16:48:01.230Z,6.58
2024-02-20T16:50:34.027Z,6.50
2024-02-20T16:53:04.935Z,6.46
2024-02-20T16:55:33.455Z,6.38
2024-02-20T16:58:01.988Z,6.31
2024-02-20T17:00:31.187Z,6.21
2024-02-20T17:02:59.907Z,6.12
2024-02-20T17:05:29.372Z,6.05
2024-02-20T17:07:58.389Z,6.00
2024-02-20T17:10:28.102Z,5.97
2024-02-20T17:15:24.550Z,5.89
2024-02-20T17:17:52.842Z,5.84
2024-02-20T17:20:21.230Z,5.81
2024-02-20T17:22:51.402Z,5.76
2024-02-20T17:25:22.032Z,5.72
2024-02-20T17:27:50.476Z,5.69
2024-02-20T17:30:19.545Z,5.73
2024-02-20T17:32:47.925Z,5.83
2024-02-20T17:35:16.328Z,5.88
2024-02-20T17:37:44.633Z,5.89
2024-02-20T17:40:14.314Z,5.91
2024-02-20T17:42:44.526Z,5.94
2024-02-20T17:45:17.576Z,6.00
2024-02-20T17:47:47.007Z,6.03
2024-02-20T17:50:16.417Z,6.01
2024-02-20T17:52:44.844Z,6.01
2024-02-20T17:55:13.151Z,6.04
2024-02-20T17:57:41.415Z,6.05
2024-02-20T18:00:10.227Z,6.10
2024-02-20T18:02:41.100Z,6.14
2024-02-20T18:05:09.638Z,6.12
2024-02-20T18:07:38.353Z,6.11
2024-02-20T18:10:07.294Z,6.12
2024-02-20T18:12:36.612Z,6.11
2024-02-20T18:15:08.633Z,6.10
2024-02-20T18:17:36.957Z,6.11
2024-02-20T18:20:06.119Z,6.11
2024-02-20T18:22:34.532Z,6.11
2024-02-20T18:25:04.265Z,6.10
2024-02-20T18:27:32.552Z,6.09
2024-02-20T18:30:00.736Z,6.13
2024-02-20T18:32:29.125Z,6.16
2024-02-20T18:34:57.478Z,6.14
2024-02-20T18:37:25.771Z,6.10
2024-02-20T18:39:54.391Z,6.09
2024-02-20T18:42:25.457Z,6.06
2024-02-20T18:44:53.716Z,6.01
2024-02-20T18:47:21.921Z,5.98
2024-02-20T18:49:51.487Z,5.96
2024-02-20T18:52:20.268Z,5.97
2024-02-20T18:54:48.774Z,6.00
2024-02-20T18:57:16.929Z,6.03
2024-02-20T18:59:45.034Z,5.98
2024-02-20T19:02:18.774Z,5.91
2024-02-20T19:04:56.597Z,5.95
2024-02-20T19:07:25.244Z,5.98
2024-02-20T19:09:53.936Z,6.01
2024-02-20T19:12:23.407Z,5.98
2024-02-20T19:14:52.823Z,5.95
2024-02-20T19:17:21.057Z,5.95
2024-02-20T19:19:50.280Z,5.97
2024-02-20T19:22:18.783Z,5.96
2024-02-20T19:24:47.130Z,5.90
2024-02-20T19:27:15.348Z,5.86
2024-02-20T19:29:43.527Z,5.85
2024-02-20T19:32:11.802Z,5.82
2024-02-20T19:34:43.418Z,5.75
2024-02-20T19:37:11.740Z,5.68
2024-02-20T19:39:40.165Z,5.61
2024-02-20T19:42:08.288Z,5.59
2024-02-20T19:44:39.959Z,5.57
2024-02-20T19:47:09.605Z,5.55
2024-02-20T19:49:38.463Z,5.54
2024-02-20T19:52:06.970Z,5.46
2024-02-20T19:54:35.337Z,5.37
2024-02-20T19:57:03.647Z,5.26
2024-02-20T19:59:31.917Z,5.18
2024-02-20T20:02:00.273Z,5.09
2024-02-20T20:04:28.631Z,5.03
2024-02-20T20:06:56.880Z,4.98
2024-02-20T20:09:25.261Z,4.90
2024-02-20T20:11:54.250Z,4.81
2024-02-20T20:14:24.291Z,4.73
2024-02-20T20:16:52.716Z,4.67
2024-02-20T20:19:21.157Z,4.63
2024-02-20T20:21:49.489Z,4.61
2024-02-20T20:24:18.974Z,4.61
2024-02-20T20:26:47.447Z,4.59
2024-02-20T20:29:15.906Z,4.56
2024-02-20T20:31:44.566Z,4.51
2024-02-20T20:34:12.978Z,4.44
2024-02-20T20:36:44.839Z,4.38
2024-02-20T20:39:13.450Z,4.31
2024-02-20T20:41:41.910Z,4.27
2024-02-20T20:44:10.524Z,4.21
2024-02-20T20:46:38.838Z,4.16
2024-02-20T20:49:08.166Z,4.10
2024-02-20T20:51:36.815Z,4.05
2024-02-20T20:54:05.639Z,4.01
2024-02-20T20:56:34.723Z,3.97
2024-02-20T20:59:03.509Z,3.92
2024-02-20T21:01:33.062Z,3.89
2024-02-20T21:04:04.189Z,3.88
2024-02-20T21:06:33.388Z,3.87
2024-02-20T21:09:01.847Z,3.83
2024-02-20T21:11:33.603Z,3.82
2024-02-20T21:14:05.216Z,3.80
2024-02-20T21:16:33.889Z,3.76
2024-02-20T21:19:02.232Z,3.72
2024-02-20T21:21:33.589Z,3.70
2024-02-20T21:24:03.566Z,3.69
2024-02-20T21:26:31.721Z,3.68
2024-02-20T21:28:59.944Z,3.67
2024-02-20T21:31:28.141Z,3.64
2024-02-20T21:33:56.510Z,3.63
2024-02-20T21:36:24.753Z,3.61
2024-02-20T21:38:52.946Z,3.58
2024-02-20T21:41:21.130Z,3.57
2024-02-20T21:43:49.380Z,3.56
2024-02-20T21:46:22.403Z,3.55
2024-02-20T21:48:51.314Z,3.53
2024-02-20T21:51:21.052Z,3.50
2024-02-20T21:53:51.234Z,3.49
2024-02-20T21:56:20.007Z,3.49
2024-02-20T21:58:48.357Z,3.50
2024-02-20T22:01:16.738Z,3.50
2024-02-20T22:03:45.687Z,3.51
2024-02-20T22:06:13.948Z,3.51
2024-02-20T22:08:42.363Z,3.52
2024-02-20T22:11:10.692Z,3.53
2024-02-20T22:13:40.443Z,3.55
2024-02-20T22:16:08.767Z,3.55
2024-02-20T22:18:36.946Z,3.54
2024-02-20T22:21:05.885Z,3.55
2024-02-20T22:23:34.148Z,3.57
2024-02-20T22:26:05.771Z,3.56
2024-02-20T22:28:34.361Z,3.56
2024-02-20T22:31:02.612Z,3.58
2024-02-20T22:33:30.856Z,3.60
2024-02-20T22:35:59.199Z,3.62
2024-02-20T22:38:31.564Z,3.60
2024-02-20T22:41:00.025Z,3.61
2024-02-20T22:43:28.189Z,3.59
2024-02-20T22:45:58.006Z,3.60
2024-02-20T22:48:26.523Z,3.60
2024-02-20T22:50:54.844Z,3.60
2024-02-20T22:53:25.377Z,3.58
2024-02-20T22:55:54.834Z,3.58
2024-02-20T22:58:23.141Z,3.60
2024-02-20T23:00:51.485Z,3.62
2024-02-20T23:03:19.706Z,3.64
2024-02-20T23:05:48.256Z,3.65
2024-02-20T23:08:16.550Z,3.64
2024-02-20T23:10:47.225Z,3.61
2024-02-20T23:13:17.441Z,3.60
2024-02-20T23:15:45.633Z,3.60
2024-02-20T23:18:14.604Z,3.58
2024-02-20T23:20:42.912Z,3.58
2024-02-20T23:23:11.113Z,3.59
2024-02-20T23:25:39.372Z,3.59
2024-02-20T23:28:07.580Z,3.58
2024-02-20T23:30:35.784Z,3.58
2024-02-20T23:33:04.409Z,3.57
2024-02-20T23:35:32.579Z,3.56
2024-02-20T23:38:00.768Z,3.54
2024-02-20T23:40:29.020Z,3.54
2024-02-20T23:42:57.270Z,3.54
2024-02-20T23:45:25.416Z,3.54
2024-02-20T23:47:53.760Z,3.53
2024-02-20T23:50:21.993Z,3.53
2024-02-20T23:52:50.194Z,3.52
2024-02-20T23:55:18.464Z,3.53
2024-02-20T23:57:46.685Z,3.53
